»·PEaware :: N47332B L88-KSBP

N47332B :: L88-KSBP

FLIGHT INFORMATION

Flight Status: Arrived
Operator: Privately registered:
United States
More flights under this callsign
Pilot: Doug M. (17614)
Aircraft: CESSNA 172 SKYHAWK
(C172)
More flights by this aircraft type
Origin: L88 New Cuyama
United States
Destination: KSBP San Luis Co Regl
United States
More flights between these airports :: More routes between these airports
Route:
File this flight plan on PilotEdge
Remarks: CAT-2
Altitude:
(Current/Filed)
4,500ft
Speed:
(Current/Filed)
115kts
Departed: 31-Dec-17 12:40 PM
Arrived: 31-Dec-17 01:14 PM
Distance/Time
Traveled:
50nm/0:33
Distance/Time
To Go:
Arrived

Flight Plot

Page will automatically refresh every two minutes.


Map Options




Map Legend


Flown Route
Filed Route
Departure Airport
Arrival Airport
Navaid (VOR, NDB)
Fix

Horizontal Profiles

Position Reports

Time Latitude Longitude Heading Altitude Ground
Speed
31-Dec-17 12:29 34.943922 -119.690797 202 2206ft 0kts
31-Dec-17 12:30 34.943922 -119.690797 202 2206ft 0kts
31-Dec-17 12:31 34.943922 -119.690797 202 2206ft 0kts
31-Dec-17 12:32 34.943922 -119.690797 202 2206ft 0kts
31-Dec-17 12:33 34.943922 -119.690797 202 2206ft 0kts
31-Dec-17 12:34 34.943880 -119.690821 205 2206ft 0kts
31-Dec-17 12:35 34.943863 -119.690831 206 2206ft 0kts
31-Dec-17 12:36 34.943863 -119.690831 206 2206ft 0kts
31-Dec-17 12:37 34.943863 -119.690831 206 2206ft 0kts
31-Dec-17 12:38 34.943863 -119.690831 206 2206ft 0kts
31-Dec-17 12:39 34.943863 -119.690831 206 2206ft 0kts
31-Dec-17 12:40 34.943863 -119.690831 206 2206ft 0kts
31-Dec-17 12:41 34.943863 -119.690831 206 2206ft 0kts
31-Dec-17 12:42 34.943863 -119.690831 206 2206ft 0kts
31-Dec-17 12:43 34.942827 -119.691090 206 2206ft 6kts
31-Dec-17 12:44 34.942146 -119.690825 124 2206ft 14kts
31-Dec-17 12:45 34.938615 -119.682264 115 2206ft 35kts
31-Dec-17 12:46 34.939122 -119.683558 295 2206ft 65kts
31-Dec-17 12:47 34.948498 -119.704286 292 3044ft 65kts
31-Dec-17 12:48 34.956988 -119.725950 297 3750ft 76kts
31-Dec-17 12:49 34.966678 -119.749579 291 4378ft 87kts
31-Dec-17 12:50 34.975313 -119.775088 291 5024ft 88kts
31-Dec-17 12:51 34.983610 -119.799480 291 5644ft 86kts
31-Dec-17 12:52 34.991838 -119.823443 291 6266ft 83kts
31-Dec-17 12:53 34.999927 -119.846792 292 6667ft 97kts
31-Dec-17 12:54 35.009686 -119.875556 292 6445ft 96kts
31-Dec-17 12:55 35.020164 -119.898215 307 6445ft 88kts
31-Dec-17 12:56 35.033833 -119.918629 307 6446ft 84kts
31-Dec-17 12:57 35.047025 -119.938145 307 6445ft 78kts
31-Dec-17 12:58 35.059241 -119.956251 307 6448ft 73kts
31-Dec-17 12:59 35.070937 -119.973727 307 6450ft 70kts
31-Dec-17 13:00 35.083280 -119.992309 307 6471ft 92kts
31-Dec-17 13:01 35.101199 -120.019991 307 6461ft 119kts
31-Dec-17 13:02 35.121145 -120.051342 307 6464ft 124kts
31-Dec-17 13:03 35.136566 -120.084782 282 6469ft 127kts
31-Dec-17 13:04 35.144006 -120.126446 283 6470ft 127kts
31-Dec-17 13:05 35.151475 -120.168434 283 6472ft 127kts
31-Dec-17 13:06 35.158400 -120.208276 283 6470ft 112kts
31-Dec-17 13:07 35.162731 -120.244152 278 6473ft 104kts
31-Dec-17 13:08 35.165938 -120.278764 278 6473ft 103kts
31-Dec-17 13:09 35.170394 -120.312455 282 6472ft 102kts
31-Dec-17 13:10 35.175141 -120.343577 282 6471ft 102kts
31-Dec-17 13:11 35.180116 -120.376177 282 6470ft 101kts
31-Dec-17 13:12 35.184623 -120.406315 282 6152ft 96kts
31-Dec-17 13:13 35.189407 -120.438040 282 5319ft 104kts
31-Dec-17 13:14 35.194242 -120.470066 277 4489ft 104kts
31-Dec-17 13:15 35.193475 -120.503991 263 3759ft 105kts
31-Dec-17 13:16 35.193650 -120.539785 279 3037ft 114kts
31-Dec-17 13:17 35.203773 -120.575718 286 1996ft 115kts
31-Dec-17 13:18 35.216340 -120.603501 301 1301ft 76kts
31-Dec-17 13:19 35.227342 -120.623352 304 572ft 72kts
31-Dec-17 13:20 35.236370 -120.639374 307 214ft 35kts
31-Dec-17 13:21 35.237538 -120.639882 31 214ft 5kts
31-Dec-17 13:22 35.238201 -120.638818 17 214ft 0kts
31-Dec-17 13:23 35.238332 -120.637765 351 214ft 0kts
31-Dec-17 13:24 35.238332 -120.637765 351 214ft 0kts
31-Dec-17 13:25 35.238332 -120.637765 351 214ft 0kts
31-Dec-17 13:26 35.238332 -120.637765 351 214ft 0kts
31-Dec-17 13:27 35.238332 -120.637765 351 214ft 0kts
31-Dec-17 13:28 35.238332 -120.637765 351 214ft 0kts
31-Dec-17 13:29 35.238332 -120.637765 351 214ft 0kts
31-Dec-17 13:30 35.238332 -120.637765 351 214ft 0kts
31-Dec-17 13:31 35.238332 -120.637765 351 214ft 0kts
31-Dec-17 13:32 35.238332 -120.637765 351 214ft 0kts
31-Dec-17 13:33 35.238332 -120.637765 351 214ft 0kts
31-Dec-17 13:34 35.238332 -120.637765 351 214ft 0kts

Navigation Log

Ident Type
1. L88 Airport
2. KSBP Airport